createdAt,value
2018-06-19T00:05:04.181Z,10.50
2018-06-19T00:10:06.514Z,11.13
2018-06-19T00:15:15.786Z,12.00
2018-06-19T00:20:18.111Z,9.60
2018-06-19T00:25:20.554Z,9.07
2018-06-19T00:30:23.232Z,7.97
2018-06-19T00:35:27.362Z,8.27
2018-06-19T00:40:31.161Z,8.57
2018-06-19T00:45:35.554Z,10.30
2018-06-19T00:50:39.408Z,10.73
2018-06-19T00:55:41.558Z,10.43
2018-06-19T01:00:43.792Z,11.07
2018-06-19T01:05:45.956Z,10.60
2018-06-19T01:10:49.479Z,12.03
2018-06-19T01:15:53.812Z,11.97
2018-06-19T01:20:56.084Z,12.30
2018-06-19T01:25:58.235Z,11.20
2018-06-19T01:31:00.504Z,12.23
2018-06-19T01:36:02.686Z,11.57
2018-06-19T01:41:04.942Z,12.40
2018-06-19T01:46:07.109Z,13.60
2018-06-19T01:51:09.242Z,15.57
2018-06-19T01:56:11.429Z,13.70
2018-06-19T02:01:13.609Z,15.17
2018-06-19T02:06:15.737Z,14.83
2018-06-19T02:11:17.859Z,14.83
2018-06-19T02:16:19.989Z,13.53
2018-06-19T02:21:22.123Z,14.13
2018-06-19T02:26:24.291Z,13.87
2018-06-19T02:31:26.464Z,16.80
2018-06-19T02:36:28.623Z,19.07
2018-06-19T02:41:30.740Z,17.07
2018-06-19T02:46:32.872Z,17.43
2018-06-19T02:51:34.985Z,17.37
2018-06-19T02:56:37.164Z,16.87
2018-06-19T03:01:39.397Z,18.80
2018-06-19T03:06:41.525Z,18.90
2018-06-19T03:11:43.644Z,20.30
2018-06-19T03:16:45.797Z,19.00
2018-06-19T03:21:47.948Z,18.20
2018-06-19T03:26:50.081Z,18.50
2018-06-19T03:31:52.247Z,19.23
2018-06-19T03:36:54.405Z,18.47
2018-06-19T03:41:56.536Z,19.40
2018-06-19T03:46:58.696Z,18.33
2018-06-19T03:52:01.588Z,19.43
2018-06-19T03:57:03.799Z,18.93
2018-06-19T04:02:05.927Z,19.20
2018-06-19T04:12:17.617Z,18.70
2018-06-19T04:17:26.952Z,19.80
2018-06-19T04:22:29.424Z,19.77
2018-06-19T04:27:31.546Z,20.50
2018-06-19T04:32:33.733Z,21.17
2018-06-19T04:37:35.918Z,21.63
2018-06-19T04:42:38.042Z,19.97
2018-06-19T04:47:40.192Z,21.07
2018-06-19T04:52:42.369Z,21.27
2018-06-19T04:57:45.087Z,20.43
2018-06-19T05:02:47.223Z,21.70
2018-06-19T05:07:50.127Z,21.53
2018-06-19T05:12:52.300Z,20.67
2018-06-19T05:17:54.827Z,20.70
2018-06-19T05:22:56.998Z,21.30
2018-06-19T05:27:59.137Z,23.03
2018-06-19T05:33:01.343Z,18.90
2018-06-19T05:38:03.515Z,19.53
2018-06-19T05:43:05.703Z,18.33
2018-06-19T05:48:07.836Z,18.40
2018-06-19T05:53:10.000Z,19.60
2018-06-19T05:58:12.118Z,20.90
2018-06-19T06:03:14.667Z,20.80
2018-06-19T06:08:16.823Z,18.10
2018-06-19T06:13:19.090Z,17.77
2018-06-19T06:18:21.263Z,18.20
2018-06-19T06:23:23.410Z,18.27
2018-06-19T06:28:25.548Z,19.20
2018-06-19T06:33:27.756Z,20.50
2018-06-19T06:38:29.945Z,18.80
2018-06-19T06:43:32.806Z,20.07
2018-06-19T06:58:14.987Z,24.20
2018-06-19T07:03:17.187Z,23.70
2018-06-19T07:08:19.340Z,21.47
2018-06-19T07:13:21.501Z,19.40
2018-06-19T07:18:23.680Z,22.27
2018-06-19T07:23:25.870Z,23.47
2018-06-19T07:28:29.695Z,19.30
2018-06-19T07:33:31.891Z,20.70
2018-06-19T07:38:34.187Z,19.87
2018-06-19T07:43:36.351Z,19.70
2018-06-19T07:48:38.499Z,17.47
2018-06-19T07:53:40.647Z,19.07
2018-06-19T07:58:42.785Z,19.20
2018-06-19T08:03:44.976Z,18.10
2018-06-19T08:08:47.274Z,15.00
2018-06-19T08:13:49.454Z,15.13
2018-06-19T08:18:51.691Z,13.53
2018-06-19T08:23:53.804Z,12.27
2018-06-19T08:28:55.954Z,10.83
2018-06-19T08:33:58.115Z,10.30
2018-06-19T08:39:00.255Z,9.20
2018-06-19T08:44:02.626Z,9.57
2018-06-19T08:49:05.131Z,10.00
2018-06-19T08:54:07.303Z,8.30
2018-06-19T08:59:09.462Z,8.40
2018-06-19T09:04:11.648Z,9.47
2018-06-19T09:09:13.806Z,8.23
2018-06-19T09:14:15.954Z,10.00
2018-06-19T09:19:18.078Z,8.77
2018-06-19T09:24:20.234Z,9.50
2018-06-19T09:29:22.374Z,9.07
2018-06-19T09:34:24.690Z,8.43
2018-06-19T09:39:26.850Z,8.37
2018-06-19T09:44:28.994Z,10.90
2018-06-19T09:49:31.119Z,10.80
2018-06-19T09:54:34.115Z,8.70
2018-06-19T09:59:36.347Z,9.40
2018-06-19T10:04:38.835Z,9.97
2018-06-19T10:09:40.987Z,10.50
2018-06-19T10:14:43.164Z,13.30
2018-06-19T10:19:45.474Z,11.50
2018-06-19T10:24:47.662Z,11.30
2018-06-19T10:29:49.820Z,10.73
2018-06-19T10:34:52.065Z,11.80
2018-06-19T10:39:54.258Z,11.90
2018-06-19T10:44:56.439Z,8.63
2018-06-19T10:49:58.582Z,7.53
2018-06-19T10:55:00.781Z,7.60
2018-06-19T11:00:02.993Z,7.60
2018-06-19T11:05:05.580Z,6.30
2018-06-19T11:10:07.715Z,4.93
2018-06-19T11:15:09.881Z,6.00
2018-06-19T11:20:12.031Z,4.80
2018-06-19T11:25:14.172Z,5.50
2018-06-19T11:30:16.395Z,4.70
2018-06-19T11:35:18.687Z,3.57
2018-06-19T11:40:20.879Z,3.87
2018-06-19T11:45:23.060Z,3.37
2018-06-19T11:50:25.242Z,2.80
2018-06-19T11:55:27.418Z,2.07
2018-06-19T12:00:29.702Z,2.57
2018-06-19T12:05:31.851Z,2.50
2018-06-19T12:10:34.034Z,2.60
2018-06-19T12:15:36.195Z,1.67
2018-06-19T12:20:38.317Z,1.70
2018-06-19T12:25:40.508Z,1.73
2018-06-19T12:30:42.685Z,1.57
2018-06-19T12:35:44.919Z,1.70
2018-06-19T12:40:47.103Z,1.90
2018-06-19T12:45:49.271Z,1.37
2018-06-19T12:54:02.702Z,1.33
2018-06-19T12:59:04.864Z,1.43
2018-06-19T13:04:18.456Z,1.53
2018-06-19T13:09:20.595Z,1.30
2018-06-19T13:14:40.302Z,0.90
2018-06-19T13:19:53.797Z,1.33
2018-06-19T13:24:55.959Z,2.00
2018-06-19T13:30:10.582Z,1.70
2018-06-19T13:35:12.751Z,1.40
2018-06-19T13:41:25.931Z,1.33
2018-06-19T13:46:28.123Z,1.83
2018-06-19T13:51:30.304Z,1.40
2018-06-19T13:57:44.431Z,1.90
2018-06-19T14:02:46.724Z,1.77
2018-06-19T14:08:02.639Z,1.50
2018-06-19T14:13:04.795Z,1.37
2018-06-19T14:18:07.446Z,1.40
2018-06-19T14:23:09.870Z,1.60
2018-06-19T14:28:12.082Z,2.13
2018-06-19T14:33:14.316Z,2.30
2018-06-19T14:38:17.217Z,2.40
2018-06-19T14:43:19.429Z,1.60
2018-06-19T14:48:21.645Z,1.77
2018-06-19T14:53:23.796Z,2.23
2018-06-19T14:58:25.990Z,2.00
2018-06-19T15:03:28.146Z,2.30
2018-06-19T15:08:30.360Z,2.30
2018-06-19T15:13:32.558Z,2.87
2018-06-19T15:18:34.729Z,2.33
2018-06-19T15:23:36.880Z,2.27
2018-06-19T15:28:39.050Z,1.40
2018-06-19T15:33:41.244Z,1.67
2018-06-19T15:38:43.447Z,1.57
2018-06-19T15:43:45.704Z,1.90
2018-06-19T15:48:47.849Z,1.93
2018-06-19T15:53:50.147Z,2.30
2018-06-19T15:58:52.547Z,2.43
2018-06-19T16:03:54.728Z,2.77
2018-06-19T16:08:56.930Z,1.97
2018-06-19T16:13:59.112Z,1.87
2018-06-19T16:19:01.582Z,2.93
2018-06-19T16:24:03.761Z,2.23
2018-06-19T16:29:05.920Z,2.20
2018-06-19T16:34:08.094Z,3.17
2018-06-19T16:39:10.672Z,2.33
2018-06-19T16:44:12.928Z,2.87
2018-06-19T16:49:15.084Z,3.07
2018-06-19T16:54:17.274Z,1.93
2018-06-19T16:59:19.462Z,2.50
2018-06-19T17:04:21.627Z,3.10
2018-06-19T17:09:23.806Z,2.63
2018-06-19T17:14:26.020Z,2.10
2018-06-19T17:19:28.204Z,2.67
2018-06-19T17:24:30.411Z,1.90
2018-06-19T17:29:32.648Z,2.30
2018-06-19T17:34:34.796Z,2.43
2018-06-19T17:39:37.015Z,2.60
2018-06-19T17:44:39.269Z,2.33
2018-06-19T17:49:41.468Z,2.40
2018-06-19T17:54:43.676Z,2.50
2018-06-19T17:59:45.830Z,3.00
2018-06-19T18:04:48.005Z,2.57
2018-06-19T18:09:50.199Z,2.57
2018-06-19T18:14:52.388Z,2.23
2018-06-19T18:19:54.608Z,2.10
2018-06-19T18:24:56.790Z,2.43
2018-06-19T18:29:58.994Z,2.50
2018-06-19T18:35:01.164Z,3.03
2018-06-19T18:40:03.387Z,3.17
2018-06-19T18:45:05.606Z,2.50
2018-06-19T18:50:07.804Z,3.93
2018-06-19T18:55:10.105Z,2.23
2018-06-19T19:00:12.304Z,2.73
2018-06-19T19:05:14.585Z,2.60
2018-06-19T19:10:22.430Z,2.80
2018-06-19T19:15:30.428Z,2.77
2018-06-19T19:20:32.646Z,2.60
2018-06-19T19:25:34.871Z,3.10
2018-06-19T19:30:37.081Z,2.70
2018-06-19T19:35:39.315Z,3.00
2018-06-19T19:40:41.517Z,2.93
2018-06-19T19:45:43.739Z,2.40
2018-06-19T19:50:46.362Z,2.33
2018-06-19T19:55:54.583Z,2.13
2018-06-19T20:00:56.935Z,2.07
2018-06-19T20:05:59.414Z,2.70
2018-06-19T20:11:01.814Z,3.00
2018-06-19T20:16:04.318Z,3.57
2018-06-19T20:21:06.640Z,2.50
2018-06-19T20:26:08.993Z,2.90
2018-06-19T20:31:11.581Z,2.13
2018-06-19T20:36:14.134Z,2.40
2018-06-19T20:41:16.767Z,3.13
2018-06-19T20:46:19.300Z,2.57
2018-06-19T20:51:21.751Z,2.80
2018-06-19T20:56:23.997Z,2.60
2018-06-19T21:01:26.179Z,3.23
2018-06-19T21:06:28.380Z,2.73
2018-06-19T21:11:31.162Z,2.30
2018-06-19T21:16:33.363Z,2.43
2018-06-19T21:21:35.540Z,2.77
2018-06-19T21:26:37.933Z,2.43
2018-06-19T21:31:40.136Z,2.30
2018-06-19T21:36:42.365Z,2.80
2018-06-19T21:41:44.532Z,2.20
2018-06-19T21:46:46.741Z,2.30
2018-06-19T21:51:48.902Z,2.60
2018-06-19T21:56:51.079Z,3.17
2018-06-19T22:01:53.534Z,3.43
2018-06-19T22:06:55.730Z,2.97
2018-06-19T22:11:57.883Z,3.20
2018-06-19T22:17:00.036Z,3.60
2018-06-19T22:22:02.186Z,2.83
2018-06-19T22:27:04.339Z,2.90
2018-06-19T22:32:06.515Z,3.10
2018-06-19T22:37:08.728Z,2.90
2018-06-19T22:42:10.896Z,3.67
2018-06-19T22:47:13.198Z,3.40
2018-06-19T22:52:15.363Z,3.10
2018-06-19T22:57:17.496Z,3.10
2018-06-19T23:02:19.628Z,3.07
2018-06-19T23:07:21.759Z,3.23
2018-06-19T23:12:23.980Z,2.40
2018-06-19T23:17:26.137Z,2.60
2018-06-19T23:22:28.334Z,3.27
2018-06-19T23:27:30.466Z,3.47
2018-06-19T23:32:32.606Z,3.77
2018-06-19T23:37:34.874Z,3.50
2018-06-19T23:42:37.007Z,3.17
2018-06-19T23:47:39.168Z,4.00
2018-06-19T23:52:41.303Z,3.07
2018-06-19T23:57:43.418Z,3.27
